createdAt,value
2019-03-25T00:01:49.616Z,18.11
2019-03-25T00:04:15.880Z,17.82
2019-03-25T00:06:42.089Z,18.10
2019-03-25T00:09:08.269Z,17.78
2019-03-25T00:11:34.637Z,17.53
2019-03-25T00:14:00.933Z,17.47
2019-03-25T00:16:27.200Z,17.41
2019-03-25T00:18:53.369Z,17.83
2019-03-25T00:21:19.567Z,17.62
2019-03-25T00:23:45.746Z,17.82
2019-03-25T00:26:11.900Z,17.92
2019-03-25T00:28:38.012Z,17.41
2019-03-25T00:31:04.172Z,16.90
2019-03-25T00:33:30.337Z,16.77
2019-03-25T00:35:56.539Z,16.36
2019-03-25T00:38:22.701Z,16.53
2019-03-25T00:40:49.032Z,16.95
2019-03-25T00:43:15.285Z,16.59
2019-03-25T00:45:41.450Z,16.75
2019-03-25T00:48:07.612Z,16.71
2019-03-25T00:50:34.043Z,16.52
2019-03-25T00:53:00.241Z,16.36
2019-03-25T00:55:26.364Z,16.48
2019-03-25T00:57:52.567Z,16.05
2019-03-25T01:00:18.823Z,16.14
2019-03-25T01:02:44.994Z,16.40
2019-03-25T01:05:11.307Z,16.51
2019-03-25T01:07:37.507Z,16.56
2019-03-25T01:10:06.011Z,16.90
2019-03-25T01:12:32.223Z,17.04
2019-03-25T01:14:58.398Z,16.89
2019-03-25T01:17:24.555Z,17.03
2019-03-25T01:19:50.869Z,17.36
2019-03-25T01:22:17.024Z,17.05
2019-03-25T01:24:43.189Z,16.79
2019-03-25T01:27:09.410Z,17.22
2019-03-25T01:29:35.572Z,17.16
2019-03-25T01:32:01.739Z,17.05
2019-03-25T01:34:28.044Z,16.57
2019-03-25T01:36:54.216Z,16.53
2019-03-25T01:39:20.389Z,16.89
2019-03-25T01:41:46.589Z,16.78
2019-03-25T01:44:12.758Z,16.83
2019-03-25T01:46:38.923Z,16.68
2019-03-25T01:49:05.137Z,16.50
2019-03-25T01:51:31.302Z,16.55
2019-03-25T01:53:57.461Z,16.47
2019-03-25T01:56:23.671Z,16.19
2019-03-25T01:58:49.841Z,15.60
2019-03-25T02:01:15.999Z,16.18
2019-03-25T02:03:42.205Z,16.31
2019-03-25T02:06:08.464Z,16.26
2019-03-25T02:08:34.629Z,16.37
2019-03-25T02:11:00.849Z,16.28
2019-03-25T02:13:27.014Z,16.35
2019-03-25T02:15:53.280Z,15.64
2019-03-25T02:18:19.501Z,15.51
2019-03-25T02:20:45.662Z,15.30
2019-03-25T02:23:11.918Z,14.89
2019-03-25T02:25:38.215Z,15.12
2019-03-25T02:28:04.474Z,15.21
2019-03-25T02:30:30.746Z,14.80
2019-03-25T02:32:56.942Z,14.81
2019-03-25T02:35:23.216Z,14.93
2019-03-25T02:37:49.363Z,14.94
2019-03-25T02:40:15.556Z,14.68
2019-03-25T02:42:41.837Z,14.79
2019-03-25T02:45:08.685Z,14.82
2019-03-25T02:47:34.880Z,14.78
2019-03-25T02:50:01.139Z,14.45
2019-03-25T02:52:27.307Z,14.42
2019-03-25T02:54:53.509Z,14.55
2019-03-25T02:57:19.672Z,14.34
2019-03-25T02:59:45.827Z,14.50
2019-03-25T03:02:12.146Z,14.10
2019-03-25T03:04:38.301Z,14.62
2019-03-25T03:07:04.559Z,14.55
2019-03-25T03:09:30.787Z,14.76
2019-03-25T03:11:57.093Z,14.69
2019-03-25T03:14:23.252Z,15.18
2019-03-25T03:16:49.473Z,15.51
2019-03-25T03:19:15.741Z,15.31
2019-03-25T03:21:41.898Z,15.91
2019-03-25T03:24:08.094Z,15.97
2019-03-25T03:26:34.266Z,15.84
2019-03-25T03:29:00.424Z,16.22
2019-03-25T03:31:26.786Z,16.14
2019-03-25T03:33:53.014Z,15.35
2019-03-25T03:36:19.183Z,15.25
2019-03-25T03:38:45.487Z,15.23
2019-03-25T03:41:11.644Z,14.38
2019-03-25T03:43:37.813Z,15.00
2019-03-25T03:46:04.114Z,15.23
2019-03-25T03:48:30.273Z,14.70
2019-03-25T03:50:57.039Z,14.72
2019-03-25T03:53:23.262Z,14.88
2019-03-25T03:55:50.241Z,14.76
2019-03-25T03:58:16.480Z,14.67
2019-03-25T04:00:42.694Z,14.87
2019-03-25T04:03:08.884Z,14.65
2019-03-25T04:05:35.044Z,14.55
2019-03-25T04:08:01.222Z,14.88
2019-03-25T04:10:27.391Z,14.76
2019-03-25T04:13:09.267Z,14.90
2019-03-25T04:15:35.536Z,15.16
2019-03-25T04:18:01.705Z,15.36
2019-03-25T04:20:27.929Z,14.87
2019-03-25T04:22:54.084Z,14.78
2019-03-25T04:25:20.242Z,15.36
2019-03-25T04:27:46.442Z,15.20
2019-03-25T04:30:13.201Z,15.03
2019-03-25T04:32:39.376Z,15.43
2019-03-25T04:35:05.694Z,15.51
2019-03-25T04:37:31.844Z,15.55
2019-03-25T04:39:58.000Z,16.18
2019-03-25T04:42:24.219Z,18.01
2019-03-25T04:44:50.389Z,18.77
2019-03-25T04:47:16.550Z,20.07
2019-03-25T04:49:42.755Z,19.25
2019-03-25T04:52:08.917Z,18.64
2019-03-25T04:54:35.078Z,17.79
2019-03-25T04:57:01.384Z,18.19
2019-03-25T04:59:27.555Z,20.18
2019-03-25T05:01:53.821Z,22.40
2019-03-25T05:04:20.037Z,24.04
2019-03-25T05:06:46.293Z,24.54
2019-03-25T05:09:12.468Z,25.23
2019-03-25T05:11:38.768Z,25.55
2019-03-25T05:14:04.989Z,26.27
2019-03-25T05:16:31.141Z,27.03
2019-03-25T05:18:57.335Z,26.68
2019-03-25T05:21:23.498Z,27.08
2019-03-25T05:23:49.766Z,25.25
2019-03-25T05:26:15.970Z,24.79
2019-03-25T05:28:42.126Z,25.25
2019-03-25T05:31:08.291Z,25.86
2019-03-25T05:33:34.486Z,25.54
2019-03-25T05:36:00.645Z,25.74
2019-03-25T05:38:26.909Z,25.87
2019-03-25T05:40:53.117Z,26.35
2019-03-25T05:43:21.156Z,25.91
2019-03-25T05:45:47.771Z,26.21
2019-03-25T05:48:13.973Z,26.78
2019-03-25T05:50:40.142Z,26.80
2019-03-25T05:53:06.299Z,26.37
2019-03-25T05:55:32.507Z,25.94
2019-03-25T05:57:58.793Z,25.33
2019-03-25T06:00:26.828Z,25.34
2019-03-25T06:02:53.021Z,25.71
2019-03-25T06:05:19.187Z,24.35
2019-03-25T06:07:45.336Z,23.66
2019-03-25T06:10:13.240Z,24.07
2019-03-25T06:12:42.342Z,24.02
2019-03-25T06:15:10.767Z,23.60
2019-03-25T06:17:37.096Z,23.95
2019-03-25T06:20:07.431Z,23.78
2019-03-25T06:22:34.483Z,22.43
2019-03-25T06:25:00.788Z,23.95
2019-03-25T06:27:26.950Z,23.91
2019-03-25T06:29:53.111Z,24.84
2019-03-25T06:32:19.328Z,25.19
2019-03-25T06:34:45.487Z,24.53
2019-03-25T06:37:11.649Z,23.70
2019-03-25T06:39:37.836Z,23.93
2019-03-25T06:42:03.989Z,24.61
2019-03-25T06:44:30.153Z,25.37
2019-03-25T06:46:56.358Z,25.10
2019-03-25T06:49:23.126Z,25.48
2019-03-25T06:51:49.283Z,24.85
2019-03-25T06:54:15.490Z,24.97
2019-03-25T06:56:41.659Z,25.28
2019-03-25T06:59:07.817Z,24.65
2019-03-25T07:01:34.003Z,24.90
2019-03-25T07:04:00.264Z,25.42
2019-03-25T07:06:26.526Z,25.31
2019-03-25T07:08:52.733Z,25.96
2019-03-25T07:11:18.889Z,26.14
2019-03-25T07:13:45.044Z,25.99
2019-03-25T07:16:11.812Z,25.62
2019-03-25T07:18:37.972Z,26.39
2019-03-25T07:21:04.234Z,25.99
2019-03-25T07:23:30.425Z,26.20
2019-03-25T07:25:56.588Z,26.33
2019-03-25T07:28:22.753Z,26.48
2019-03-25T07:30:49.051Z,26.56
2019-03-25T07:33:15.205Z,26.55
2019-03-25T07:35:41.354Z,26.01
2019-03-25T07:38:07.545Z,25.86
2019-03-25T07:40:33.705Z,26.21
2019-03-25T07:42:59.884Z,26.46
2019-03-25T07:45:26.083Z,26.94
2019-03-25T07:47:52.236Z,26.33
2019-03-25T07:50:18.396Z,26.35
2019-03-25T07:52:44.600Z,26.87
2019-03-25T07:55:11.182Z,26.81
2019-03-25T07:57:47.656Z,26.70
2019-03-25T08:00:14.286Z,26.72
2019-03-25T08:02:40.604Z,27.24
2019-03-25T08:05:07.063Z,27.85
2019-03-25T08:07:33.277Z,28.31
2019-03-25T08:09:59.448Z,26.97
2019-03-25T08:12:25.610Z,27.15
2019-03-25T08:14:51.798Z,27.79
2019-03-25T08:17:18.053Z,27.79
2019-03-25T08:19:44.304Z,26.89
2019-03-25T08:22:10.639Z,27.01
2019-03-25T08:24:36.804Z,27.00
2019-03-25T08:27:02.972Z,26.41
2019-03-25T08:29:29.188Z,26.55
2019-03-25T08:31:55.348Z,26.82
2019-03-25T08:34:21.598Z,26.41
2019-03-25T08:36:47.791Z,26.88
2019-03-25T08:39:14.052Z,27.04
2019-03-25T08:41:40.203Z,27.04
2019-03-25T08:44:06.407Z,26.83
2019-03-25T08:46:32.790Z,28.28
2019-03-25T08:48:58.941Z,28.66
2019-03-25T08:51:25.154Z,28.70
2019-03-25T08:53:51.309Z,28.68
2019-03-25T08:56:17.465Z,29.65
2019-03-25T08:58:43.768Z,29.70
2019-03-25T09:01:09.925Z,29.24
2019-03-25T09:03:36.081Z,29.61
2019-03-25T09:06:02.374Z,30.33
2019-03-25T09:08:28.545Z,30.95
2019-03-25T09:10:54.801Z,30.51
2019-03-25T09:13:21.003Z,29.97
2019-03-25T09:15:47.263Z,29.97
2019-03-25T09:18:13.558Z,30.12
2019-03-25T09:20:40.259Z,29.87
2019-03-25T09:23:06.522Z,30.12
2019-03-25T09:25:32.681Z,29.11
2019-03-25T09:27:58.876Z,30.19
2019-03-25T09:30:51.284Z,29.59
2019-03-25T09:33:17.599Z,29.95
2019-03-25T09:35:43.783Z,29.69
2019-03-25T09:38:09.909Z,30.18
2019-03-25T09:40:36.218Z,29.53
2019-03-25T09:43:02.376Z,29.93
2019-03-25T09:45:28.638Z,29.40
2019-03-25T09:47:54.840Z,30.64
2019-03-25T09:50:21.096Z,30.62
2019-03-25T09:52:47.259Z,30.61
2019-03-25T09:55:13.452Z,30.57
2019-03-25T09:57:39.721Z,29.55
2019-03-25T10:00:08.701Z,30.50
2019-03-25T10:02:34.900Z,30.97
2019-03-25T10:05:01.161Z,29.70
2019-03-25T10:07:28.538Z,29.86
2019-03-25T10:09:54.924Z,30.84
2019-03-25T10:12:21.091Z,29.56
2019-03-25T10:14:47.250Z,30.74
2019-03-25T10:17:13.558Z,31.37
2019-03-25T10:19:39.707Z,32.43
2019-03-25T10:22:05.871Z,32.06
2019-03-25T10:24:32.094Z,31.48
2019-03-25T10:26:58.255Z,31.28
2019-03-25T10:29:24.522Z,31.95
2019-03-25T10:31:50.727Z,31.39
2019-03-25T10:34:16.880Z,30.90
2019-03-25T10:36:43.147Z,30.62
2019-03-25T10:39:09.355Z,30.84
2019-03-25T10:41:38.331Z,31.63
2019-03-25T10:44:03.587Z,32.14
2019-03-25T10:46:29.782Z,31.44
2019-03-25T10:48:55.948Z,32.14
2019-03-25T10:51:22.211Z,31.84
2019-03-25T10:53:48.420Z,32.35
2019-03-25T10:56:14.595Z,31.96
2019-03-25T10:58:40.747Z,31.95
2019-03-25T11:01:09.523Z,32.30
2019-03-25T11:03:35.717Z,32.23
2019-03-25T11:06:01.882Z,32.77
2019-03-25T11:08:28.189Z,33.09
2019-03-25T11:10:54.339Z,32.75
2019-03-25T11:13:20.501Z,33.25
2019-03-25T11:15:46.800Z,31.52
2019-03-25T11:18:12.957Z,31.07
2019-03-25T11:20:39.268Z,31.52
2019-03-25T11:23:05.763Z,31.35
2019-03-25T11:25:31.925Z,30.89
2019-03-25T11:27:58.179Z,31.36
2019-03-25T11:30:37.338Z,32.35
2019-03-25T11:33:03.502Z,33.32
2019-03-25T11:35:29.669Z,34.76
2019-03-25T11:37:55.985Z,32.74
2019-03-25T11:40:22.144Z,33.20
2019-03-25T11:42:48.418Z,32.18
2019-03-25T11:45:14.719Z,32.23
2019-03-25T11:47:41.189Z,32.86
2019-03-25T11:50:07.948Z,33.48
2019-03-25T11:52:34.151Z,31.66
2019-03-25T11:55:00.352Z,31.09
2019-03-25T11:57:26.470Z,31.29
2019-03-25T11:59:52.672Z,32.31
2019-03-25T12:02:18.935Z,31.49
2019-03-25T12:04:45.087Z,32.60
2019-03-25T12:07:11.293Z,31.88
2019-03-25T12:09:37.454Z,32.05
2019-03-25T12:12:03.622Z,33.36
2019-03-25T12:14:29.921Z,31.94
2019-03-25T12:16:56.076Z,30.80
2019-03-25T12:19:22.232Z,31.95
2019-03-25T12:21:48.452Z,31.93
2019-03-25T12:24:14.713Z,32.19
2019-03-25T12:26:40.882Z,32.11
2019-03-25T12:29:07.139Z,32.26
2019-03-25T12:31:33.302Z,31.06
2019-03-25T12:33:59.560Z,31.00
2019-03-25T12:36:25.890Z,31.41
2019-03-25T12:38:52.047Z,31.55
2019-03-25T12:41:18.201Z,32.69
2019-03-25T12:43:44.511Z,32.90
2019-03-25T12:46:10.671Z,33.60
2019-03-25T12:48:37.244Z,34.73
2019-03-25T12:51:03.488Z,33.94
2019-03-25T12:53:29.656Z,33.58
2019-03-25T12:55:55.916Z,33.61
2019-03-25T12:58:22.434Z,33.88
2019-03-25T13:00:48.600Z,34.64
2019-03-25T13:03:14.750Z,34.97
2019-03-25T13:05:40.963Z,34.06
2019-03-25T13:08:07.517Z,34.06
2019-03-25T13:10:33.672Z,34.39
2019-03-25T13:12:59.882Z,33.72
2019-03-25T13:15:26.039Z,33.45
2019-03-25T13:17:52.199Z,32.56
2019-03-25T13:20:18.403Z,32.63
2019-03-25T13:22:45.478Z,34.24
2019-03-25T13:25:11.729Z,35.08
2019-03-25T13:27:37.926Z,33.17
2019-03-25T13:30:07.795Z,33.61
2019-03-25T13:32:33.951Z,34.81
2019-03-25T13:35:00.328Z,34.40
2019-03-25T13:37:26.511Z,33.93
2019-03-25T13:39:52.670Z,34.50
2019-03-25T13:42:18.862Z,34.12
2019-03-25T13:44:45.039Z,34.70
2019-03-25T13:47:11.204Z,35.09
2019-03-25T13:49:37.406Z,35.54
2019-03-25T13:52:03.571Z,35.33
2019-03-25T13:54:29.738Z,34.99
2019-03-25T13:56:56.059Z,34.77
2019-03-25T13:59:22.236Z,33.61
2019-03-25T14:01:48.514Z,33.95
2019-03-25T14:04:14.718Z,33.95
2019-03-25T14:06:40.880Z,34.30
2019-03-25T14:09:07.344Z,34.51
2019-03-25T14:11:33.547Z,34.54
2019-03-25T14:14:00.329Z,32.48
2019-03-25T14:16:26.646Z,32.75
2019-03-25T14:18:52.854Z,31.76
2019-03-25T14:21:19.012Z,31.73
2019-03-25T14:23:45.226Z,30.83
2019-03-25T14:26:11.428Z,30.15
2019-03-25T14:28:37.587Z,30.94
2019-03-25T14:31:03.760Z,30.57
2019-03-25T14:33:29.947Z,31.91
2019-03-25T14:35:56.104Z,31.98
2019-03-25T14:38:22.268Z,29.38
2019-03-25T14:40:48.473Z,31.30
2019-03-25T14:43:14.622Z,31.87
2019-03-25T14:45:40.903Z,32.52
2019-03-25T14:48:07.514Z,30.72
2019-03-25T14:50:33.671Z,30.64
2019-03-25T14:52:59.819Z,30.88
2019-03-25T14:55:26.139Z,30.85
2019-03-25T14:57:52.308Z,30.86
2019-03-25T15:00:24.966Z,31.64
2019-03-25T15:02:47.210Z,31.04
2019-03-25T15:05:13.601Z,31.84
2019-03-25T15:07:39.882Z,31.52
2019-03-25T15:10:07.065Z,30.92
2019-03-25T15:12:33.226Z,31.40
2019-03-25T15:14:59.491Z,31.30
2019-03-25T15:17:25.692Z,30.71
2019-03-25T15:19:51.861Z,30.64
2019-03-25T15:22:18.011Z,30.54
2019-03-25T15:24:44.265Z,30.68
2019-03-25T15:27:10.440Z,30.72
2019-03-25T15:29:36.610Z,31.00
2019-03-25T15:32:02.807Z,30.77
2019-03-25T15:34:28.967Z,30.71
2019-03-25T15:36:55.222Z,30.43
2019-03-25T15:39:21.520Z,31.18
2019-03-25T15:41:47.697Z,31.20
2019-03-25T15:44:16.651Z,30.76
2019-03-25T15:47:01.588Z,31.28
2019-03-25T15:49:27.745Z,31.50
2019-03-25T15:51:54.028Z,31.39
2019-03-25T15:54:20.326Z,31.53
2019-03-25T15:56:46.489Z,31.37
2019-03-25T15:59:12.649Z,31.11
2019-03-25T16:01:38.853Z,30.92
2019-03-25T16:04:05.014Z,30.39
2019-03-25T16:06:31.196Z,30.21
2019-03-25T16:08:57.382Z,29.98
2019-03-25T16:11:23.549Z,29.64
2019-03-25T16:13:49.709Z,29.28
2019-03-25T16:16:15.909Z,28.91
2019-03-25T16:18:42.068Z,28.91
2019-03-25T16:21:08.336Z,28.92
2019-03-25T16:23:35.033Z,28.79
2019-03-25T16:26:01.503Z,28.27
2019-03-25T16:28:27.651Z,27.88
2019-03-25T16:30:58.798Z,27.53
2019-03-25T16:33:22.156Z,27.09
2019-03-25T16:35:48.313Z,26.48
2019-03-25T16:38:14.627Z,26.65
2019-03-25T16:40:40.895Z,26.12
2019-03-25T16:43:07.051Z,25.50
2019-03-25T16:45:33.253Z,25.66
2019-03-25T16:47:59.420Z,26.08
2019-03-25T16:50:25.682Z,25.74
2019-03-25T16:52:51.891Z,25.64
2019-03-25T16:55:18.044Z,25.92
2019-03-25T16:57:44.231Z,25.42
2019-03-25T17:00:10.533Z,25.17
2019-03-25T17:02:36.719Z,25.11
2019-03-25T17:05:04.174Z,25.00
2019-03-25T17:07:30.385Z,24.86
2019-03-25T17:09:56.553Z,24.72
2019-03-25T17:12:22.844Z,24.95
2019-03-25T17:14:49.062Z,25.02
2019-03-25T17:17:15.222Z,24.81
2019-03-25T17:19:41.380Z,24.89
2019-03-25T17:22:07.574Z,24.77
2019-03-25T17:24:33.735Z,24.85
2019-03-25T17:27:00.948Z,24.53
2019-03-25T17:29:27.151Z,24.24
2019-03-25T17:31:53.340Z,24.28
2019-03-25T17:34:19.599Z,24.05
2019-03-25T17:36:45.833Z,23.63
2019-03-25T17:39:12.123Z,24.23
2019-03-25T17:41:38.285Z,24.14
2019-03-25T17:44:04.482Z,24.25
2019-03-25T17:46:30.634Z,24.19
2019-03-25T17:48:56.850Z,23.80
2019-03-25T17:51:23.047Z,23.78
2019-03-25T17:53:49.199Z,24.03
2019-03-25T17:56:15.458Z,23.40
2019-03-25T17:58:41.654Z,23.92
2019-03-25T18:01:10.014Z,24.31
2019-03-25T18:03:36.173Z,23.42
2019-03-25T18:06:02.474Z,23.95
2019-03-25T18:08:28.623Z,23.60
2019-03-25T18:10:54.798Z,23.77
2019-03-25T18:13:22.542Z,23.63
2019-03-25T18:15:49.165Z,22.86
2019-03-25T18:18:15.427Z,23.18
2019-03-25T18:20:41.728Z,23.15
2019-03-25T18:23:07.881Z,22.86
2019-03-25T18:25:34.048Z,22.94
2019-03-25T18:28:00.396Z,22.74
2019-03-25T18:30:48.109Z,22.75
2019-03-25T18:33:14.314Z,23.44
2019-03-25T18:35:40.475Z,22.80
2019-03-25T18:38:06.748Z,22.16
2019-03-25T18:40:32.936Z,23.16
2019-03-25T18:42:59.214Z,22.97
2019-03-25T18:45:25.487Z,22.82
2019-03-25T18:47:53.372Z,22.86
2019-03-25T18:50:19.754Z,22.80
2019-03-25T18:52:45.924Z,22.50
2019-03-25T18:55:12.104Z,23.11
2019-03-25T18:57:38.254Z,22.94
2019-03-25T19:00:06.314Z,23.29
2019-03-25T19:02:32.619Z,22.65
2019-03-25T19:04:58.773Z,22.61
2019-03-25T19:07:25.370Z,22.47
2019-03-25T19:09:52.723Z,23.03
2019-03-25T19:12:18.993Z,22.81
2019-03-25T19:14:45.146Z,22.87
2019-03-25T19:17:11.456Z,22.43
2019-03-25T19:19:37.662Z,22.61
2019-03-25T19:22:05.355Z,23.05
2019-03-25T19:24:31.874Z,22.69
2019-03-25T19:26:58.033Z,22.31
2019-03-25T19:29:24.266Z,22.39
2019-03-25T19:31:50.461Z,22.73
2019-03-25T19:34:16.590Z,22.59
2019-03-25T19:36:42.777Z,22.68
2019-03-25T19:39:08.941Z,22.46
2019-03-25T19:41:35.135Z,22.89
2019-03-25T19:44:01.301Z,22.42
2019-03-25T19:46:27.507Z,22.56
2019-03-25T19:48:53.743Z,22.17
2019-03-25T19:51:20.042Z,23.15
2019-03-25T19:53:46.244Z,22.63
2019-03-25T19:56:12.371Z,22.06
2019-03-25T19:58:38.522Z,22.40
2019-03-25T20:01:04.847Z,22.55
2019-03-25T20:03:33.097Z,22.28
2019-03-25T20:06:04.741Z,22.06
2019-03-25T20:08:30.947Z,22.50
2019-03-25T20:10:57.132Z,22.74
2019-03-25T20:13:23.262Z,21.73
2019-03-25T20:15:49.460Z,22.56
2019-03-25T20:18:15.615Z,21.83
2019-03-25T20:20:41.920Z,21.73
2019-03-25T20:23:08.071Z,22.04
2019-03-25T20:25:34.346Z,22.42
2019-03-25T20:28:00.649Z,21.82
2019-03-25T20:30:26.876Z,21.84
2019-03-25T20:32:53.141Z,22.02
2019-03-25T20:35:19.444Z,21.31
2019-03-25T20:37:45.609Z,21.68
2019-03-25T20:40:11.793Z,22.44
2019-03-25T20:42:38.034Z,21.89
2019-03-25T20:45:06.256Z,21.72
2019-03-25T20:47:32.406Z,21.48
2019-03-25T20:49:59.020Z,21.85
2019-03-25T20:52:25.316Z,22.46
2019-03-25T20:54:51.475Z,22.18
2019-03-25T20:57:17.707Z,21.80
2019-03-25T20:59:43.937Z,21.62
2019-03-25T21:02:10.199Z,22.11
2019-03-25T21:04:36.369Z,21.51
2019-03-25T21:07:02.590Z,21.81
2019-03-25T21:09:28.829Z,22.22
2019-03-25T21:11:55.022Z,22.19
2019-03-25T21:14:21.315Z,21.74
2019-03-25T21:16:47.592Z,22.24
2019-03-25T21:19:13.876Z,21.95
2019-03-25T21:21:40.073Z,21.76
2019-03-25T21:24:06.234Z,22.02
2019-03-25T21:26:32.484Z,22.14
2019-03-25T21:28:58.708Z,22.12
2019-03-25T21:31:25.044Z,21.87
2019-03-25T21:33:51.376Z,21.73
2019-03-25T21:36:17.562Z,21.82
2019-03-25T21:38:43.838Z,21.71
2019-03-25T21:41:09.961Z,21.90
2019-03-25T21:43:36.145Z,21.77
2019-03-25T21:46:02.517Z,22.00
2019-03-25T21:48:28.747Z,21.74
2019-03-25T21:50:54.993Z,21.85
2019-03-25T21:53:21.402Z,21.65
2019-03-25T21:55:47.713Z,21.95
2019-03-25T21:58:14.023Z,21.71
2019-03-25T22:00:40.173Z,21.89
2019-03-25T22:03:12.084Z,21.84
2019-03-25T22:05:34.449Z,21.70
2019-03-25T22:08:00.598Z,22.13
2019-03-25T22:10:26.758Z,21.50
2019-03-25T22:12:52.959Z,21.91
2019-03-25T22:15:19.217Z,21.41
2019-03-25T22:17:45.376Z,21.58
2019-03-25T22:20:11.565Z,21.95
2019-03-25T22:22:37.828Z,21.92
2019-03-25T22:25:05.788Z,21.62
2019-03-25T22:27:31.973Z,21.23
2019-03-25T22:29:58.130Z,21.07
2019-03-25T22:32:24.327Z,21.45
2019-03-25T22:34:50.521Z,21.29
2019-03-25T22:37:16.672Z,21.81
2019-03-25T22:39:42.833Z,21.65
2019-03-25T22:42:09.027Z,21.97
2019-03-25T22:44:35.188Z,21.53
2019-03-25T22:47:01.344Z,21.64
2019-03-25T22:49:27.627Z,21.95
2019-03-25T22:51:53.788Z,21.69
2019-03-25T22:54:19.945Z,21.40
2019-03-25T22:56:46.243Z,21.78
2019-03-25T22:59:12.505Z,21.44
2019-03-25T23:01:38.655Z,21.43
2019-03-25T23:04:04.864Z,21.15
2019-03-25T23:06:31.027Z,21.10
2019-03-25T23:08:57.182Z,21.58
2019-03-25T23:11:23.389Z,21.89
2019-03-25T23:13:49.556Z,21.85
2019-03-25T23:16:15.727Z,21.84
2019-03-25T23:18:41.928Z,21.82
2019-03-25T23:21:08.099Z,21.76
2019-03-25T23:23:34.253Z,21.70
2019-03-25T23:26:00.459Z,21.61
2019-03-25T23:28:26.606Z,21.94
2019-03-25T23:30:52.866Z,21.86
2019-03-25T23:33:19.997Z,22.18
2019-03-25T23:35:46.152Z,22.33
2019-03-25T23:38:12.306Z,22.49
2019-03-25T23:40:38.512Z,22.41
2019-03-25T23:43:04.672Z,22.76
2019-03-25T23:45:30.831Z,22.50
2019-03-25T23:47:57.015Z,22.36
2019-03-25T23:50:23.273Z,22.04
2019-03-25T23:52:49.434Z,22.46
2019-03-25T23:55:15.658Z,22.09
2019-03-25T23:57:41.822Z,21.69
